createdAt,value
2019-02-20T00:01:39.485Z,98.00
2019-02-20T00:04:48.066Z,98.50
2019-02-20T00:08:06.977Z,98.10
2019-02-20T00:11:16.161Z,98.20
2019-02-20T00:14:35.075Z,98.20
2019-02-20T00:17:43.775Z,98.20
2019-02-20T00:20:52.426Z,98.10
2019-02-20T00:24:01.136Z,98.10
2019-02-20T00:27:09.705Z,98.10
2019-02-20T00:30:18.727Z,98.20
2019-02-20T00:33:27.298Z,98.20
2019-02-20T00:36:35.877Z,98.10
2019-02-20T00:39:45.010Z,98.00
2019-02-20T00:42:53.675Z,98.00
2019-02-20T00:46:36.575Z,98.00
2019-02-20T00:49:48.341Z,98.00
2019-02-20T00:53:08.631Z,97.90
2019-02-20T00:56:17.128Z,98.00
2019-02-20T00:59:25.767Z,98.00
2019-02-20T01:02:34.350Z,98.00
2019-02-20T01:05:42.940Z,98.10
2019-02-20T01:08:51.629Z,98.10
2019-02-20T01:12:10.709Z,97.80
2019-02-20T01:15:19.282Z,97.80
2019-02-20T01:18:27.875Z,97.60
2019-02-20T01:21:36.391Z,97.80
2019-02-20T01:24:44.896Z,97.70
2019-02-20T01:27:53.512Z,97.80
2019-02-20T01:31:12.398Z,97.70
2019-02-20T01:34:20.869Z,97.80
2019-02-20T01:37:29.432Z,97.80
2019-02-20T01:40:38.062Z,97.70
2019-02-20T01:43:46.523Z,97.60
2019-02-20T01:47:05.248Z,97.50
2019-02-20T01:50:13.876Z,97.30
2019-02-20T01:53:22.343Z,97.40
2019-02-20T01:56:30.926Z,97.50
2019-02-20T01:59:39.473Z,97.40
2019-02-20T02:02:58.190Z,97.60
2019-02-20T02:06:06.655Z,97.70
2019-02-20T02:09:15.282Z,97.70
2019-02-20T02:12:24.314Z,97.70
2019-02-20T02:15:33.073Z,97.80
2019-02-20T02:18:41.668Z,97.90
2019-02-20T02:21:50.240Z,98.00
2019-02-20T02:24:58.708Z,98.30
2019-02-20T02:28:17.530Z,98.80
2019-02-20T02:31:26.120Z,98.40
2019-02-20T02:34:34.765Z,98.60
2019-02-20T02:37:43.250Z,99.00
2019-02-20T02:40:51.878Z,98.60
2019-02-20T02:44:00.452Z,98.50
2019-02-20T02:47:19.286Z,98.40
2019-02-20T02:50:27.890Z,98.30
2019-02-20T02:53:36.458Z,98.40
2019-02-20T02:56:45.044Z,98.20
2019-02-20T02:59:53.846Z,98.10
2019-02-20T03:03:02.456Z,98.20
2019-02-20T03:06:22.639Z,98.20
2019-02-20T03:09:31.287Z,98.10
2019-02-20T03:12:39.940Z,98.10
2019-02-20T03:15:48.654Z,98.10
2019-02-20T03:18:57.291Z,97.90
2019-02-20T03:22:05.886Z,97.60
2019-02-20T03:25:14.637Z,97.60
2019-02-20T03:28:23.261Z,97.70
2019-02-20T03:47:04.602Z,97.80
2019-02-20T03:50:13.252Z,98.10
2019-02-20T03:53:21.870Z,98.00
2019-02-20T03:56:30.653Z,98.10
2019-02-20T03:59:39.235Z,98.10
2019-02-20T04:02:47.835Z,98.10
2019-02-20T04:05:56.383Z,98.10
2019-02-20T04:09:15.277Z,98.20
2019-02-20T04:12:23.740Z,98.10
2019-02-20T04:15:32.412Z,98.00
2019-02-20T04:18:41.200Z,98.00
2019-02-20T04:21:49.796Z,98.10
2019-02-20T04:24:58.377Z,98.30
2019-02-20T04:28:07.121Z,98.20
2019-02-20T04:31:15.824Z,98.20
2019-02-20T04:34:24.440Z,98.30
2019-02-20T04:37:43.325Z,98.10
2019-02-20T04:40:52.083Z,98.20
2019-02-20T04:44:00.884Z,97.90
2019-02-20T04:47:09.390Z,98.00
2019-02-20T04:50:18.013Z,98.00
2019-02-20T04:53:26.518Z,97.90
2019-02-20T04:56:35.100Z,97.90
2019-02-20T04:59:54.046Z,97.90
2019-02-20T05:03:02.549Z,98.00
2019-02-20T05:06:11.047Z,97.90
2019-02-20T05:09:19.711Z,97.90
2019-02-20T05:12:28.324Z,98.00
2019-02-20T05:15:36.798Z,98.00
2019-02-20T05:18:55.714Z,97.90
2019-02-20T05:22:04.217Z,98.00
2019-02-20T05:25:12.737Z,98.30
2019-02-20T05:28:21.324Z,98.00
2019-02-20T05:31:29.967Z,98.10
2019-02-20T05:34:38.630Z,98.10
2019-02-20T05:37:47.299Z,98.10
2019-02-20T05:41:06.178Z,98.30
2019-02-20T05:44:14.795Z,98.20
2019-02-20T05:47:23.387Z,98.20
2019-02-20T05:50:32.080Z,98.20
2019-02-20T05:53:40.702Z,98.20
2019-02-20T05:56:49.232Z,98.20
2019-02-20T05:59:58.458Z,98.30
2019-02-20T06:03:06.986Z,98.10
2019-02-20T06:06:15.555Z,98.30
2019-02-20T06:09:34.377Z,98.20
2019-02-20T06:12:42.962Z,98.30
2019-02-20T06:15:51.569Z,98.30
2019-02-20T06:19:00.230Z,98.20
2019-02-20T06:22:08.741Z,98.20
2019-02-20T06:25:17.387Z,98.40
2019-02-20T06:28:26.036Z,98.20
2019-02-20T06:31:33.126Z,98.30
2019-02-20T06:34:52.130Z,98.40
2019-02-20T06:38:00.877Z,98.40
2019-02-20T06:41:09.411Z,98.40
2019-02-20T06:44:17.995Z,98.50
2019-02-20T06:47:26.601Z,98.40
2019-02-20T06:50:35.283Z,98.50
2019-02-20T06:53:43.894Z,98.50
2019-02-20T06:57:02.623Z,98.20
2019-02-20T07:00:12.494Z,98.40
2019-02-20T07:03:23.627Z,98.30
2019-02-20T07:07:10.750Z,98.20
2019-02-20T07:11:03.536Z,98.30
2019-02-20T07:15:30.429Z,98.30
2019-02-20T07:19:18.158Z,98.30
2019-02-20T07:22:54.290Z,98.10
2019-02-20T07:26:37.863Z,98.00
2019-02-20T07:29:45.096Z,98.20
2019-02-20T07:32:53.687Z,98.10
2019-02-20T07:36:12.399Z,98.00
2019-02-20T07:39:21.068Z,98.00
2019-02-20T07:42:30.155Z,98.10
2019-02-20T07:45:38.862Z,97.90
2019-02-20T07:48:47.636Z,98.10
2019-02-20T07:51:56.270Z,97.90
2019-02-20T07:55:12.998Z,97.70
2019-02-20T07:58:15.347Z,97.90
2019-02-20T08:01:24.105Z,98.00
2019-02-20T08:04:39.035Z,97.90
2019-02-20T08:07:47.579Z,97.80
2019-02-20T08:10:57.373Z,97.60
2019-02-20T08:14:04.862Z,97.80
2019-02-20T08:17:23.833Z,97.70
2019-02-20T08:20:32.539Z,97.30
2019-02-20T08:23:39.518Z,97.30
2019-02-20T08:26:48.018Z,97.40
2019-02-20T08:29:56.755Z,97.40
2019-02-20T08:33:05.315Z,97.10
2019-02-20T08:36:13.951Z,97.30
2019-02-20T08:39:32.730Z,97.30
2019-02-20T08:42:41.365Z,97.30
2019-02-20T08:45:49.952Z,97.20
2019-02-20T08:48:58.701Z,97.30
2019-02-20T08:52:07.310Z,97.20
2019-02-20T08:55:15.898Z,97.40
2019-02-20T08:58:24.509Z,97.30
2019-02-20T09:01:43.253Z,97.10
2019-02-20T09:04:51.962Z,97.00
2019-02-20T09:08:01.684Z,96.80
2019-02-20T09:11:10.351Z,96.80
2019-02-20T09:14:20.050Z,96.80
2019-02-20T09:17:28.770Z,97.10
2019-02-20T09:20:37.364Z,97.00
2019-02-20T09:23:45.951Z,97.10
2019-02-20T09:26:54.533Z,97.00
2019-02-20T09:30:03.158Z,97.20
2019-02-20T09:33:11.773Z,96.90
2019-02-20T09:36:30.654Z,96.60
2019-02-20T09:39:43.143Z,96.80
2019-02-20T09:42:51.537Z,96.90
2019-02-20T09:46:01.320Z,96.80
2019-02-20T09:49:10.042Z,96.40
2019-02-20T09:52:18.675Z,96.30
2019-02-20T09:55:27.292Z,96.30
2019-02-20T09:58:35.920Z,96.30
2019-02-20T10:01:54.901Z,96.30
2019-02-20T10:05:03.507Z,96.40
2019-02-20T10:08:12.113Z,96.20
2019-02-20T10:11:20.793Z,96.30
2019-02-20T10:14:29.403Z,95.80
2019-02-20T10:17:37.993Z,95.50
2019-02-20T10:20:46.623Z,95.50
2019-02-20T10:24:05.383Z,95.50
2019-02-20T10:27:15.551Z,95.10
2019-02-20T10:30:24.148Z,95.20
2019-02-20T10:33:32.640Z,95.00
2019-02-20T10:36:41.292Z,95.00
2019-02-20T10:39:50.021Z,95.10
2019-02-20T10:42:58.713Z,94.60
2019-02-20T10:46:17.554Z,94.50
2019-02-20T10:49:26.238Z,94.60
2019-02-20T10:52:34.824Z,94.50
2019-02-20T10:55:43.436Z,94.40
2019-02-20T10:58:52.073Z,94.30
2019-02-20T11:02:00.686Z,94.20
2019-02-20T11:05:09.431Z,93.90
2019-02-20T11:08:28.206Z,93.50
2019-02-20T11:11:36.747Z,93.20
2019-02-20T11:14:45.365Z,93.40
2019-02-20T11:17:53.963Z,93.00
2019-02-20T11:21:03.964Z,93.40
2019-02-20T11:24:12.563Z,93.30
2019-02-20T11:27:31.477Z,93.40
2019-02-20T11:30:40.234Z,93.90
2019-02-20T11:33:48.777Z,93.70
2019-02-20T11:36:57.426Z,93.90
2019-02-20T11:40:07.211Z,93.60
2019-02-20T11:43:26.001Z,94.10
2019-02-20T11:46:34.523Z,93.80
2019-02-20T11:49:43.142Z,94.00
2019-02-20T11:52:51.760Z,93.90
2019-02-20T11:56:00.276Z,93.70
2019-02-20T11:59:18.980Z,93.60
2019-02-20T12:02:27.599Z,93.40
2019-02-20T12:05:36.193Z,93.20
2019-02-20T12:08:44.719Z,93.20
2019-02-20T12:11:54.749Z,93.40
2019-02-20T12:15:13.916Z,93.40
2019-02-20T12:18:32.937Z,92.70
2019-02-20T12:21:41.551Z,92.90
2019-02-20T12:24:50.146Z,92.90
2019-02-20T12:27:58.666Z,92.70
2019-02-20T12:31:07.267Z,92.80
2019-02-20T12:34:15.780Z,92.70
2019-02-20T12:37:34.640Z,92.70
2019-02-20T12:40:43.302Z,92.90
2019-02-20T12:43:51.811Z,92.60
2019-02-20T12:47:00.467Z,92.70
2019-02-20T12:50:09.674Z,92.20
2019-02-20T12:53:18.224Z,92.30
2019-02-20T12:56:26.838Z,92.50
2019-02-20T12:59:36.750Z,92.20
2019-02-20T13:02:55.593Z,92.20
2019-02-20T13:06:04.287Z,92.50
2019-02-20T13:09:13.914Z,92.30
2019-02-20T13:12:22.534Z,91.70
2019-02-20T13:15:41.337Z,90.90
2019-02-20T13:18:49.964Z,90.10
2019-02-20T13:21:58.592Z,90.10
2019-02-20T13:25:07.690Z,89.90
2019-02-20T13:28:16.208Z,89.90
2019-02-20T13:31:24.703Z,89.50
2019-02-20T13:34:31.831Z,89.50
2019-02-20T13:37:40.472Z,88.60
2019-02-20T13:40:49.091Z,88.00
2019-02-20T13:44:08.762Z,88.20
2019-02-20T13:47:18.682Z,87.80
2019-02-20T13:50:27.401Z,87.90
2019-02-20T13:53:36.034Z,87.20
2019-02-20T13:56:44.532Z,86.90
2019-02-20T14:00:03.359Z,85.90
2019-02-20T14:03:13.180Z,86.40
2019-02-20T14:06:21.964Z,86.80
2019-02-20T14:09:32.588Z,86.30
2019-02-20T14:12:41.192Z,86.70
2019-02-20T14:15:51.027Z,86.70
2019-02-20T14:18:58.759Z,86.90
2019-02-20T14:22:07.896Z,87.60
2019-02-20T14:25:16.589Z,87.90
2019-02-20T14:28:25.250Z,88.00
2019-02-20T14:31:33.898Z,87.10
2019-02-20T14:34:42.534Z,86.70
2019-02-20T14:37:51.153Z,87.10
2019-02-20T14:41:00.852Z,88.20
2019-02-20T14:44:11.056Z,88.20
2019-02-20T14:47:19.646Z,88.60
2019-02-20T14:50:28.296Z,89.10
2019-02-20T14:53:36.918Z,89.80
2019-02-20T14:56:45.917Z,90.00
2019-02-20T14:59:54.451Z,89.70
2019-02-20T15:03:03.078Z,89.30
2019-02-20T15:06:23.112Z,89.60
2019-02-20T15:09:31.855Z,89.70
2019-02-20T15:12:40.456Z,90.00
2019-02-20T15:15:49.311Z,90.10
2019-02-20T15:19:00.585Z,90.40
2019-02-20T15:22:19.619Z,90.70
2019-02-20T15:25:28.268Z,90.90
2019-02-20T15:28:36.940Z,91.10
2019-02-20T15:31:45.488Z,91.00
2019-02-20T15:34:56.798Z,90.90
2019-02-20T15:38:05.484Z,90.50
2019-02-20T15:41:14.205Z,90.60
2019-02-20T15:44:22.972Z,90.70
2019-02-20T15:47:31.579Z,90.70
2019-02-20T15:50:40.307Z,90.30
2019-02-20T15:53:48.920Z,90.30
2019-02-20T15:56:57.562Z,90.70
2019-02-20T16:00:08.758Z,90.60
2019-02-20T16:03:21.889Z,90.80
2019-02-20T16:06:30.508Z,90.50
2019-02-20T16:09:39.167Z,90.60
2019-02-20T16:12:48.139Z,90.70
2019-02-20T16:15:56.763Z,90.80
2019-02-20T16:19:05.300Z,91.00
2019-02-20T16:22:13.911Z,90.90
2019-02-20T16:25:23.837Z,90.70
2019-02-20T16:28:42.991Z,90.70
2019-02-20T16:31:51.614Z,90.70
2019-02-20T16:35:00.289Z,90.30
2019-02-20T16:38:09.842Z,90.20
2019-02-20T16:41:28.814Z,90.10
2019-02-20T16:44:37.496Z,90.30
2019-02-20T16:47:46.085Z,90.50
2019-02-20T16:50:55.510Z,90.70
2019-02-20T16:54:17.107Z,90.90
2019-02-20T16:57:24.250Z,91.10
2019-02-20T17:00:32.933Z,91.10
2019-02-20T17:03:41.829Z,91.30
2019-02-20T17:06:50.475Z,91.20
2019-02-20T17:09:59.187Z,90.80
2019-02-20T17:13:07.769Z,91.10
2019-02-20T17:16:16.303Z,90.80
2019-02-20T17:19:26.398Z,90.50
2019-02-20T17:22:45.405Z,90.50
2019-02-20T17:25:54.097Z,90.30
2019-02-20T17:29:02.703Z,90.30
2019-02-20T17:32:12.632Z,90.30
2019-02-20T17:35:21.569Z,90.10
2019-02-20T17:38:30.134Z,90.00
2019-02-20T17:41:39.438Z,89.20
2019-02-20T17:44:48.068Z,89.60
2019-02-20T17:47:56.809Z,90.00
2019-02-20T17:51:05.446Z,89.50
2019-02-20T17:54:14.045Z,90.20
2019-02-20T17:57:22.712Z,90.00
2019-02-20T18:00:41.603Z,90.00
2019-02-20T18:03:50.106Z,90.20
2019-02-20T18:06:58.816Z,90.30
2019-02-20T18:10:08.830Z,90.50
2019-02-20T18:13:17.431Z,90.50
2019-02-20T18:16:26.015Z,90.40
2019-02-20T18:19:33.016Z,90.30
2019-02-20T18:22:52.015Z,90.30
2019-02-20T18:26:00.528Z,90.30
2019-02-20T18:29:09.061Z,90.20
2019-02-20T18:32:17.572Z,90.10
2019-02-20T18:35:26.200Z,90.00
2019-02-20T18:38:45.052Z,90.00
2019-02-20T18:41:53.670Z,90.10
2019-02-20T18:45:02.244Z,90.20
2019-02-20T18:48:10.854Z,90.20
2019-02-20T18:51:19.500Z,90.20
2019-02-20T18:54:28.100Z,90.10
2019-02-20T18:57:46.888Z,90.20
2019-02-20T19:00:55.498Z,90.30
2019-02-20T19:04:04.110Z,90.10
2019-02-20T19:07:14.342Z,90.30
2019-02-20T19:10:34.560Z,90.20
2019-02-20T19:14:09.344Z,90.20
2019-02-20T19:18:37.992Z,90.20
2019-02-20T19:22:20.743Z,90.20
2019-02-20T19:26:27.342Z,90.00
2019-02-20T19:30:51.105Z,89.80
2019-02-20T19:34:42.872Z,89.50
2019-02-20T19:38:35.120Z,89.60
2019-02-20T19:42:35.924Z,89.50
2019-02-20T19:46:18.680Z,89.60
2019-02-20T19:50:28.992Z,90.10
2019-02-20T19:54:27.321Z,89.20
2019-02-20T19:58:15.506Z,89.30
2019-02-20T20:01:57.130Z,89.00
2019-02-20T20:05:53.530Z,88.80
2019-02-20T20:10:05.408Z,89.20
2019-02-20T20:13:45.512Z,88.90
2019-02-20T20:17:40.984Z,88.80
2019-02-20T20:21:10.456Z,88.60
2019-02-20T20:25:07.922Z,88.90
2019-02-20T20:29:05.534Z,89.00
2019-02-20T20:32:37.205Z,89.10
2019-02-20T20:36:30.443Z,89.00
2019-02-20T20:40:46.173Z,89.30
2019-02-20T20:44:30.060Z,89.20
2019-02-20T20:48:20.053Z,89.40
2019-02-20T20:52:27.156Z,89.60
2019-02-20T20:56:31.889Z,89.70
2019-02-20T21:00:44.203Z,90.10
2019-02-20T21:04:44.155Z,90.10
2019-02-20T21:08:43.815Z,90.10
2019-02-20T21:12:57.580Z,90.10
2019-02-20T21:16:54.745Z,90.40
2019-02-20T21:21:33.458Z,90.30
2019-02-20T21:25:39.897Z,90.30
2019-02-20T21:29:41.749Z,90.20
2019-02-20T21:33:49.635Z,90.30
2019-02-20T21:38:02.582Z,90.40
2019-02-20T21:41:36.049Z,90.40
2019-02-20T21:45:29.580Z,90.50
2019-02-20T21:49:12.061Z,90.40
2019-02-20T21:53:07.543Z,90.30
2019-02-20T21:57:00.805Z,90.50
2019-02-20T22:00:56.172Z,90.50
2019-02-20T22:04:28.082Z,90.60
2019-02-20T22:08:41.285Z,90.70
2019-02-20T22:12:27.599Z,90.70
2019-02-20T22:16:24.365Z,90.80
2019-02-20T22:20:49.176Z,90.80
2019-02-20T22:24:30.432Z,90.90
2019-02-20T22:28:17.073Z,91.00
2019-02-20T22:32:21.453Z,91.00
2019-02-20T22:36:35.418Z,91.10
2019-02-20T22:40:32.040Z,91.30
2019-02-20T22:44:40.479Z,91.30
2019-02-20T22:48:27.820Z,91.30
2019-02-20T22:52:31.405Z,91.30
2019-02-20T22:56:42.173Z,91.40
2019-02-20T23:00:34.367Z,91.90
2019-02-20T23:04:09.100Z,91.50
2019-02-20T23:07:49.621Z,91.40
2019-02-20T23:12:10.587Z,91.60
2019-02-20T23:15:19.082Z,91.80
2019-02-20T23:18:27.598Z,91.70
2019-02-20T23:21:36.070Z,91.70
2019-02-20T23:24:54.996Z,91.70
2019-02-20T23:28:03.498Z,91.90
2019-02-20T23:31:12.084Z,91.80
2019-02-20T23:34:20.698Z,92.10
2019-02-20T23:37:29.344Z,91.90
2019-02-20T23:40:38.176Z,91.90
2019-02-20T23:43:46.769Z,91.80
2019-02-20T23:47:06.562Z,91.70
2019-02-20T23:50:15.178Z,91.80
2019-02-20T23:53:23.759Z,91.80
2019-02-20T23:56:32.255Z,91.90
2019-02-20T23:59:40.971Z,91.80
